Varginha, Brazil
Current Conditions -  °F | °C
As of 7:00 PM on Thursday 18 Dec 2014 (Local Time) from SBPC Reporting Station
Clear Clear  
Wind Chill: 77°   Ceiling: Unl
Heat Index: 79°   Visibility: 6mi
Dew Point: 68°   Wind: 3mph
Humidity: 74%   Direction: 110°ESE
Pressure: 29.97"   Gusts: NA
Location:  21.56°S, 45.43°W
Report Text: SBPC 182100Z 11003KT CAVOK 25/20 Q1015
Loading
Personal Weather Stations






























Interactive Weather Map New forecast layout! Learn more

10-Day Weather Forecast

Advertisements
Track Severe Weather on mobile